Time;durP1;ratioP1;P1;durP2;ratioP2;P2;SDS_P1;SDS_P2;PMS_P1;PMS_P2;Temp;Humidity;BMP_temperature;BMP_pressure;BME280_temperature;BME280_humidity;BME280_pressure;Samples;Min_cycle;Max_cycle;Signal;HPM_P1;HPM_P2
2022/01/22 00:00:52;;;;;;;13.63;4.97;;;;;;;;;;5013724;28;20058;-62
2022/01/22 00:03:20;;;;;;;12.73;4.80;;;;;;;;;;5015243;28;20904;-62
2022/01/22 00:05:47;;;;;;;14.70;4.38;;;;;;;;;;5014724;28;20129;-62
2022/01/22 00:08:13;;;;;;;11.20;3.92;;;;;;;;;;5018887;28;20125;-62
2022/01/22 00:10:49;;;;;;;11.27;4.60;;;;;;;;;;5015606;28;20069;-62
2022/01/22 00:15:46;;;;;;;7.85;4.07;;;;;;;;;;5024852;28;20057;-62
2022/01/22 00:18:12;;;;;;;;;;;;;;;;;;5025767;28;20091;-62
2022/01/22 00:20:39;;;;;;;8.20;3.80;;;;;;;;;;5026538;28;19967;-62
2022/01/22 00:23:06;;;;;;;9.97;4.03;;;;;;;;;;5026711;28;20085;-62
2022/01/22 00:25:39;;;;;;;10.75;3.88;;;;;;;;;;5033249;28;20092;-62
2022/01/22 00:28:05;;;;;;;12.13;4.13;;;;;;;;;;5024392;28;20073;-62
2022/01/22 00:30:32;;;;;;;7.50;3.17;;;;;;;;;;5018235;28;20085;-62
2022/01/22 00:32:59;;;;;;;;;;;;;;;;;;5019257;28;20619;-62
2022/01/22 00:35:26;;;;;;;9.00;3.60;;;;;;;;;;5018028;28;20501;-62
2022/01/22 00:37:52;;;;;;;11.87;4.00;;;;;;;;;;5017877;28;21557;-62
2022/01/22 00:40:20;;;;;;;12.27;3.55;;;;;;;;;;5025224;28;20385;-62
2022/01/22 00:42:46;;;;;;;13.65;5.35;;;;;;;;;;5018524;28;20544;-62
2022/01/22 00:45:13;;;;;;;12.27;5.07;;;;;;;;;;5019332;28;20714;-62
2022/01/22 00:47:42;;;;;;;15.80;5.45;;;;;;;;;;5026517;28;20132;-62
2022/01/22 00:50:11;;;;;;;7.20;3.80;;;;;;;;;;5023977;28;20128;-62
2022/01/22 00:52:41;;;;;;;11.75;4.80;;;;;;;;;;5018042;28;20050;-62
2022/01/22 00:55:08;;;;;;;14.27;4.90;;;;;;;;;;5019940;28;20045;-62
2022/01/22 00:57:35;;;;;;;11.93;5.03;;;;;;;;;;5023364;28;20161;-62
2022/01/22 01:00:04;;;;;;;10.80;4.80;;;;;;;;;;5018485;28;20574;-62
2022/01/22 01:02:30;;;;;;;13.35;4.78;;;;;;;;;;5016598;28;20045;-62
2022/01/22 01:04:57;;;;;;;6.80;3.38;;;;;;;;;;5020379;28;20041;-62
2022/01/22 01:07:23;;;;;;;10.00;3.53;;;;;;;;;;5024179;28;20580;-62
2022/01/22 01:09:51;;;;;;;10.25;4.53;;;;;;;;;;5017916;28;20730;-62
2022/01/22 01:12:17;;;;;;;11.70;4.55;;;;;;;;;;5017803;28;20057;-62
2022/01/22 01:14:55;;;;;;;12.40;4.90;;;;;;;;;;5018805;28;20073;-62
2022/01/22 01:17:57;;;;;;;;;;;;;;;;;;5018790;28;20064;-62
2022/01/22 01:34:22;;;;;;;11.50;4.43;;;;;;;;;;5016775;28;20064;-62
2022/01/22 01:36:49;;;;;;;12.68;4.15;;;;;;;;;;5013657;28;20061;-62
2022/01/22 01:39:21;;;;;;;11.10;5.65;;;;;;;;;;5017307;28;20564;-62
2022/01/22 01:42:03;;;;;;;9.23;4.13;;;;;;;;;;5022024;28;20511;-62
2022/01/22 01:44:30;;;;;;;13.43;4.05;;;;;;;;;;5020104;28;20072;-62
2022/01/22 01:47:04;;;;;;;12.13;4.22;;;;;;;;;;5019682;28;20500;-62
2022/01/22 01:49:31;;;;;;;8.98;5.00;;;;;;;;;;5016154;28;20061;-62
2022/01/22 01:52:01;;;;;;;10.20;4.13;;;;;;;;;;5019435;28;20084;-62
2022/01/22 01:54:46;;;;;;;10.93;4.32;;;;;;;;;;5024204;28;20379;-62
2022/01/22 01:59:59;;;;;;;7.00;4.50;;;;;;;;;;5018237;28;20059;-62
2022/01/22 02:02:29;;;;;;;10.98;3.55;;;;;;;;;;5025126;28;20073;-62
2022/01/22 02:04:55;;;;;;;7.47;3.83;;;;;;;;;;5020214;28;20146;-62
2022/01/22 02:07:22;;;;;;;11.20;4.70;;;;;;;;;;5016980;28;20045;-63
2022/01/22 02:09:48;;;;;;;11.20;4.30;;;;;;;;;;5016158;28;20913;-62
2022/01/22 02:25:56;;;;;;;7.35;3.83;;;;;;;;;;5014705;28;20068;-63
2022/01/22 02:28:23;;;;;;;9.02;3.70;;;;;;;;;;5015713;28;20144;-62
2022/01/22 02:30:55;;;;;;;6.05;3.13;;;;;;;;;;5015863;28;20049;-62
2022/01/22 02:33:38;;;;;;;4.43;2.50;;;;;;;;;;5015381;28;20053;-62
2022/01/22 02:41:29;;;;;;;13.55;5.20;;;;;;;;;;5014549;28;20049;-62
2022/01/22 02:43:56;;;;;;;6.75;4.43;;;;;;;;;;5017185;28;20051;-62
2022/01/22 02:46:24;;;;;;;13.98;5.22;;;;;;;;;;5016575;28;20530;-62
2022/01/22 02:48:51;;;;;;;8.05;4.53;;;;;;;;;;5015693;28;20172;-62
2022/01/22 02:51:19;;;;;;;13.30;4.78;;;;;;;;;;5022682;28;20709;-62
2022/01/22 02:53:48;;;;;;;14.48;5.15;;;;;;;;;;5014276;28;20129;-62
2022/01/22 02:56:15;;;;;;;10.55;3.97;;;;;;;;;;5015550;28;20050;-62
2022/01/22 02:58:48;;;;;;;8.38;3.85;;;;;;;;;;5024287;28;20050;-62
2022/01/22 03:01:17;;;;;;;6.80;3.20;;;;;;;;;;5014721;28;20058;-62
2022/01/22 03:03:43;;;;;;;7.80;4.30;;;;;;;;;;5014764;28;20175;-62
2022/01/22 03:06:13;;;;;;;9.10;4.20;;;;;;;;;;5016366;28;20051;-62
2022/01/22 03:08:41;;;;;;;8.63;4.22;;;;;;;;;;5018374;28;20060;-62
2022/01/22 03:11:18;;;;;;;13.25;4.63;;;;;;;;;;5020913;28;20450;-62
2022/01/22 03:16:50;;;;;;;7.18;3.90;;;;;;;;;;5015016;28;20140;-62
2022/01/22 03:22:14;;;;;;;9.20;3.40;;;;;;;;;;5015347;28;20136;-62
2022/01/22 03:27:33;;;;;;;12.35;4.22;;;;;;;;;;5016133;28;20057;-62
2022/01/22 03:30:00;;;;;;;10.85;3.88;;;;;;;;;;5018208;28;20045;-62
2022/01/22 03:32:32;;;;;;;10.40;3.53;;;;;;;;;;5015748;28;20190;-62
2022/01/22 03:35:11;;;;;;;5.53;3.20;;;;;;;;;;5014590;28;20054;-62
2022/01/22 03:37:38;;;;;;;8.43;4.35;;;;;;;;;;5018918;28;20508;-62
2022/01/22 03:40:05;;;;;;;9.68;4.60;;;;;;;;;;5022128;28;20041;-63
2022/01/22 03:42:32;;;;;;;7.50;4.38;;;;;;;;;;5013887;28;20128;-62
2022/01/22 03:44:58;;;;;;;10.53;4.60;;;;;;;;;;5016471;28;20049;-62
2022/01/22 03:47:25;;;;;;;17.23;10.20;;;;;;;;;;5013472;28;20068;-62
2022/01/22 03:49:51;;;;;;;8.75;4.40;;;;;;;;;;5019181;28;20598;-62
2022/01/22 03:52:19;;;;;;;8.82;4.20;;;;;;;;;;5019531;28;20133;-62
2022/01/22 03:54:45;;;;;;;10.82;3.58;;;;;;;;;;5013807;28;20053;-62
2022/01/22 03:57:12;;;;;;;8.80;3.83;;;;;;;;;;5014091;28;20045;-62
2022/01/22 03:59:41;;;;;;;7.82;3.65;;;;;;;;;;5016303;28;20065;-62
2022/01/22 04:03:22;;;;;;;6.13;3.63;;;;;;;;;;5020812;28;20156;-62
2022/01/22 04:05:02;;;;;;;9.45;3.78;;;;;;;;;;5001163;28;20740;-62
2022/01/22 04:10:15;;;;;;;5.03;1.98;;;;;;;;;;5014348;28;20059;-62
2022/01/22 04:12:55;;;;;;;4.78;2.20;;;;;;;;;;5021674;28;20568;-62
2022/01/22 04:15:27;;;;;;;4.93;2.28;;;;;;;;;;5018523;28;20057;-62
2022/01/22 04:28:43;;;;;;;6.57;2.60;;;;;;;;;;5013345;28;20063;-62
2022/01/22 04:31:09;;;;;;;4.82;2.35;;;;;;;;;;5013787;28;20131;-62
2022/01/22 04:33:38;;;;;;;6.68;2.67;;;;;;;;;;5018431;28;20069;-63
2022/01/22 04:36:05;;;;;;;6.50;2.67;;;;;;;;;;5014044;28;20064;-62
2022/01/22 04:38:31;;;;;;;4.47;2.03;;;;;;;;;;5017067;28;20136;-62
2022/01/22 04:40:59;;;;;;;4.03;2.33;;;;;;;;;;5015029;28;20149;-62
2022/01/22 04:43:26;;;;;;;5.63;2.30;;;;;;;;;;5015298;28;20390;-63
2022/01/22 04:46:07;;;;;;;;;;;;;;;;;;5013885;28;20049;-62
2022/01/22 04:48:52;;;;;;;6.22;2.50;;;;;;;;;;5012420;28;20007;-63
2022/01/22 04:56:52;;;;;;;8.55;3.08;;;;;;;;;;5015623;28;20624;-63
2022/01/22 04:59:20;;;;;;;5.43;2.92;;;;;;;;;;5014419;28;20187;-62
2022/01/22 05:01:47;;;;;;;7.30;3.20;;;;;;;;;;5016528;28;20691;-63
2022/01/22 05:04:13;;;;;;;3.50;2.25;;;;;;;;;;5020722;28;20048;-63
2022/01/22 05:06:46;;;;;;;8.00;2.50;;;;;;;;;;5021145;28;20073;-62
2022/01/22 05:09:13;;;;;;;4.82;2.42;;;;;;;;;;5018872;28;20175;-62
2022/01/22 05:11:39;;;;;;;3.77;2.07;;;;;;;;;;5017418;28;20058;-63
2022/01/22 05:14:12;;;;;;;3.72;2.13;;;;;;;;;;5022442;28;20299;-62
2022/01/22 05:16:39;;;;;;;3.80;1.85;;;;;;;;;;5017307;28;20135;-63
2022/01/22 05:19:13;;;;;;;8.38;2.17;;;;;;;;;;5023952;28;20087;-62
2022/01/22 05:21:44;;;;;;;5.38;2.80;;;;;;;;;;5021359;28;20141;-62
2022/01/22 05:24:15;;;;;;;6.55;2.63;;;;;;;;;;5021166;28;20148;-62
2022/01/22 05:32:55;;;;;;;2.72;1.70;;;;;;;;;;4974808;28;20484;-63
2022/01/22 05:38:07;;;;;;;6.45;2.22;;;;;;;;;;5019804;28;20092;-62
2022/01/22 05:40:34;;;;;;;6.97;2.00;;;;;;;;;;5025420;28;20331;-62
2022/01/22 05:43:01;;;;;;;3.72;1.63;;;;;;;;;;5025160;28;20140;-62
2022/01/22 05:45:27;;;;;;;4.07;2.25;;;;;;;;;;5023912;28;20056;-62
2022/01/22 05:47:53;;;;;;;4.53;1.98;;;;;;;;;;5024229;28;20059;-62
2022/01/22 05:50:33;;;;;;;4.05;2.05;;;;;;;;;;5022870;28;20133;-62
2022/01/22 05:53:14;;;;;;;4.22;1.85;;;;;;;;;;5023411;28;20483;-62
2022/01/22 06:01:12;;;;;;;6.68;2.30;;;;;;;;;;5021665;28;20060;-63
2022/01/22 06:03:46;;;;;;;4.43;2.17;;;;;;;;;;5025050;28;20056;-62
2022/01/22 06:06:13;;;;;;;3.95;1.92;;;;;;;;;;5022166;28;20084;-62
2022/01/22 06:08:49;;;;;;;5.03;2.25;;;;;;;;;;5023475;28;20060;-62
2022/01/22 06:11:22;;;;;;;3.75;1.90;;;;;;;;;;5021332;28;20138;-63
2022/01/22 06:13:48;;;;;;;4.75;2.03;;;;;;;;;;5023287;28;20084;-63
2022/01/22 06:16:24;;;;;;;6.50;2.15;;;;;;;;;;5024319;28;20057;-62
2022/01/22 06:18:50;;;;;;;5.85;2.15;;;;;;;;;;5024353;28;20049;-63
2022/01/22 06:21:17;;;;;;;3.47;2.00;;;;;;;;;;5021055;28;20556;-62
2022/01/22 06:23:47;;;;;;;4.53;2.30;;;;;;;;;;5022663;28;20132;-62
2022/01/22 06:26:14;;;;;;;3.42;1.98;;;;;;;;;;5023306;28;20148;-62
2022/01/22 06:28:41;;;;;;;5.88;2.20;;;;;;;;;;5021285;28;20057;-62
2022/01/22 06:31:07;;;;;;;4.32;2.03;;;;;;;;;;5025180;28;20065;-62
2022/01/22 06:33:40;;;;;;;5.53;1.88;;;;;;;;;;5021675;28;20045;-62
2022/01/22 06:36:21;;;;;;;4.88;2.05;;;;;;;;;;5024860;28;20145;-63
2022/01/22 06:39:09;;;;;;;5.20;1.98;;;;;;;;;;5023387;28;20176;-62
2022/01/22 06:41:45;;;;;;;3.58;1.92;;;;;;;;;;5022639;28;20128;-62
2022/01/22 06:44:14;;;;;;;8.43;2.00;;;;;;;;;;5021882;28;20096;-62
2022/01/22 06:46:41;;;;;;;7.95;1.92;;;;;;;;;;5020662;28;20092;-62
2022/01/22 06:49:07;;;;;;;3.78;1.90;;;;;;;;;;5024093;28;20077;-63
2022/01/22 06:51:36;;;;;;;2.78;1.45;;;;;;;;;;5022648;28;20128;-63
2022/01/22 06:54:03;;;;;;;4.07;1.65;;;;;;;;;;5017066;28;20077;-63
2022/01/22 06:56:30;;;;;;;3.92;1.50;;;;;;;;;;5023478;28;20076;-62
2022/01/22 06:59:06;;;;;;;5.85;2.10;;;;;;;;;;5023445;28;20128;-62
2022/01/22 07:01:32;;;;;;;2.42;1.80;;;;;;;;;;5024599;28;20080;-62
2022/01/22 07:03:58;;;;;;;3.63;1.77;;;;;;;;;;5022279;28;20814;-63
2022/01/22 07:06:25;;;;;;;1.98;1.55;;;;;;;;;;5023668;28;20149;-63
2022/01/22 07:08:51;;;;;;;3.30;1.60;;;;;;;;;;5021343;28;20128;-62
2022/01/22 07:11:18;;;;;;;3.92;1.52;;;;;;;;;;5019342;28;20089;-62
2022/01/22 07:13:47;;;;;;;4.05;2.00;;;;;;;;;;5019625;28;20068;-63
2022/01/22 07:16:14;;;;;;;4.33;1.47;;;;;;;;;;5018652;28;20082;-62
2022/01/22 07:18:40;;;;;;;2.72;1.40;;;;;;;;;;5018777;28;20107;-62
2022/01/22 07:21:20;;;;;;;4.45;1.52;;;;;;;;;;5018970;28;20666;-62
2022/01/22 07:26:13;;;;;;;3.10;1.40;;;;;;;;;;5020799;28;20073;-62
2022/01/22 07:28:39;;;;;;;5.60;2.03;;;;;;;;;;5025702;28;20080;-63
2022/01/22 07:31:06;;;;;;;3.40;1.52;;;;;;;;;;5022146;28;20144;-63
2022/01/22 07:33:34;;;;;;;3.95;1.77;;;;;;;;;;5022982;28;20071;-62
2022/01/22 07:36:03;;;;;;;5.55;1.80;;;;;;;;;;5019732;28;20569;-62
2022/01/22 07:38:29;;;;;;;1.48;1.25;;;;;;;;;;5023740;28;20143;-63
2022/01/22 07:40:56;;;;;;;3.60;1.70;;;;;;;;;;5008650;28;20053;-63
2022/01/22 07:43:22;;;;;;;3.05;1.92;;;;;;;;;;5008305;28;20132;-63
2022/01/22 07:45:49;;;;;;;5.00;1.80;;;;;;;;;;5021772;28;20449;-63
2022/01/22 07:48:15;;;;;;;3.95;1.25;;;;;;;;;;5021515;28;20141;-62
2022/01/22 07:50:44;;;;;;;4.43;1.42;;;;;;;;;;5022331;28;20060;-63
2022/01/22 07:53:11;;;;;;;2.55;1.45;;;;;;;;;;5021967;28;21969;-62
2022/01/22 07:55:39;;;;;;;4.50;1.38;;;;;;;;;;5023193;28;20076;-62
2022/01/22 07:58:14;;;;;;;2.15;1.25;;;;;;;;;;5021843;28;20073;-62
2022/01/22 08:00:40;;;;;;;4.15;1.70;;;;;;;;;;5019290;28;20058;-62
2022/01/22 08:03:08;;;;;;;5.05;1.63;;;;;;;;;;5023258;28;20059;-63
2022/01/22 08:05:36;;;;;;;4.07;1.73;;;;;;;;;;5018375;28;20643;-63
2022/01/22 08:08:03;;;;;;;10.27;4.47;;;;;;;;;;5021168;28;20050;-63
2022/01/22 08:10:30;;;;;;;4.57;3.10;;;;;;;;;;5020237;28;20132;-62
2022/01/22 08:12:57;;;;;;;3.25;1.55;;;;;;;;;;5019300;28;20084;-63
2022/01/22 08:15:24;;;;;;;3.53;1.50;;;;;;;;;;5021580;28;20144;-63
2022/01/22 08:17:50;;;;;;;1.70;1.53;;;;;;;;;;5022759;28;20073;-63
2022/01/22 08:20:17;;;;;;;2.60;1.57;;;;;;;;;;5018738;28;20168;-62
2022/01/22 08:22:44;;;;;;;4.75;1.73;;;;;;;;;;5021538;28;20136;-63
2022/01/22 08:25:11;;;;;;;2.05;1.38;;;;;;;;;;5022544;28;20050;-63
2022/01/22 08:30:24;;;;;;;2.40;1.30;;;;;;;;;;5018851;28;20050;-62
2022/01/22 08:35:54;;;;;;;6.32;1.80;;;;;;;;;;5018290;28;20120;-63
2022/01/22 08:38:21;;;;;;;4.68;2.00;;;;;;;;;;5023799;28;20053;-63
2022/01/22 08:40:48;;;;;;;3.43;1.80;;;;;;;;;;5024383;28;20054;-63
2022/01/22 08:43:14;;;;;;;5.50;1.70;;;;;;;;;;5026363;28;20304;-63
2022/01/22 08:45:41;;;;;;;7.70;1.80;;;;;;;;;;5025826;28;20049;-63
2022/01/22 08:48:08;;;;;;;5.18;2.10;;;;;;;;;;5025275;28;20056;-63
2022/01/22 08:50:35;;;;;;;3.30;1.50;;;;;;;;;;5024560;28;20058;-62
2022/01/22 08:53:02;;;;;;;2.80;1.60;;;;;;;;;;5024567;28;20108;-62
2022/01/22 08:55:28;;;;;;;5.93;1.60;;;;;;;;;;5022983;28;20085;-63
2022/01/22 08:57:54;;;;;;;2.47;1.52;;;;;;;;;;5025284;28;20069;-63
2022/01/22 09:00:23;;;;;;;2.92;1.40;;;;;;;;;;5022323;28;20049;-63
2022/01/22 09:02:50;;;;;;;2.25;1.38;;;;;;;;;;5026456;28;20088;-63
2022/01/22 09:05:17;;;;;;;3.88;1.45;;;;;;;;;;5029838;28;20052;-63
2022/01/22 09:07:46;;;;;;;5.35;1.58;;;;;;;;;;5026523;28;20551;-63
2022/01/22 09:10:13;;;;;;;1.80;1.45;;;;;;;;;;5024159;28;20492;-63
2022/01/22 09:12:39;;;;;;;3.37;1.50;;;;;;;;;;5023110;28;20060;-63
2022/01/22 09:15:06;;;;;;;4.00;1.45;;;;;;;;;;5024968;28;20395;-63
2022/01/22 09:17:33;;;;;;;1.92;1.50;;;;;;;;;;5026679;28;20136;-63
2022/01/22 09:20:01;;;;;;;7.57;3.67;;;;;;;;;;5010707;28;20045;-63
2022/01/22 09:22:27;;;;;;;4.80;2.67;;;;;;;;;;5020831;28;20092;-63
2022/01/22 09:24:54;;;;;;;4.25;3.00;;;;;;;;;;5023966;28;20461;-63
2022/01/22 09:27:20;;;;;;;2.95;1.50;;;;;;;;;;5022036;28;20196;-63
2022/01/22 09:29:54;;;;;;;3.25;1.60;;;;;;;;;;5023145;28;20073;-63
2022/01/22 09:32:21;;;;;;;2.15;1.52;;;;;;;;;;5023878;28;20129;-63
2022/01/22 09:34:48;;;;;;;3.53;1.35;;;;;;;;;;5024248;28;20137;-63
2022/01/22 09:37:22;;;;;;;4.47;1.50;;;;;;;;;;5026498;28;20495;-62
2022/01/22 09:39:48;;;;;;;4.53;1.60;;;;;;;;;;5028238;28;20083;-62
2022/01/22 09:42:15;;;;;;;5.38;2.38;;;;;;;;;;5025148;28;20160;-62
2022/01/22 09:44:42;;;;;;;9.63;6.35;;;;;;;;;;5025054;28;20084;-62
2022/01/22 09:47:09;;;;;;;4.47;1.77;;;;;;;;;;5024199;28;20049;-62
2022/01/22 09:49:36;;;;;;;6.38;1.67;;;;;;;;;;5024346;28;20537;-62
2022/01/22 09:52:02;;;;;;;4.10;1.45;;;;;;;;;;5026004;28;20049;-62
2022/01/22 09:54:29;;;;;;;3.95;1.48;;;;;;;;;;5023750;28;20543;-63
2022/01/22 09:56:59;;;;;;;4.07;1.60;;;;;;;;;;5027645;28;20131;-62
2022/01/22 09:59:32;;;;;;;2.05;1.50;;;;;;;;;;5024785;28;20133;-63
2022/01/22 10:02:07;;;;;;;2.40;1.27;;;;;;;;;;5022229;28;20133;-62
2022/01/22 10:04:38;;;;;;;3.20;1.48;;;;;;;;;;5021096;28;20108;-62
2022/01/22 10:07:13;;;;;;;2.53;1.30;;;;;;;;;;5026814;28;20132;-62
2022/01/22 10:09:55;;;;;;;1.63;1.38;;;;;;;;;;5021566;28;20146;-62
2022/01/22 10:12:22;;;;;;;3.03;1.48;;;;;;;;;;5024977;28;20173;-63
2022/01/22 10:15:13;;;;;;;3.75;1.40;;;;;;;;;;5024128;28;20165;-63
2022/01/22 10:17:44;;;;;;;3.10;1.30;;;;;;;;;;5025285;28;20172;-62
2022/01/22 10:20:23;;;;;;;3.33;1.42;;;;;;;;;;5024983;28;20561;-62
2022/01/22 10:22:51;;;;;;;10.55;4.93;;;;;;;;;;5022426;28;20468;-62
2022/01/22 10:25:17;;;;;;;;;;;;;;;;;;5022242;28;20719;-62
2022/01/22 10:27:48;;;;;;;5.28;3.55;;;;;;;;;;5022721;28;20512;-62
2022/01/22 10:30:17;;;;;;;11.00;5.82;;;;;;;;;;5022985;28;20446;-62
2022/01/22 10:32:58;;;;;;;8.60;5.38;;;;;;;;;;5025544;28;20084;-62
2022/01/22 10:35:25;;;;;;;10.93;6.72;;;;;;;;;;5027181;28;20088;-63
2022/01/22 10:38:15;;;;;;;4.97;3.00;;;;;;;;;;5002562;28;20413;-63
2022/01/22 10:40:42;;;;;;;6.00;3.70;;;;;;;;;;5005458;28;20047;-62
2022/01/22 10:43:12;;;;;;;10.35;3.40;;;;;;;;;;5002776;28;20132;-62
2022/01/22 10:45:42;;;;;;;8.98;3.90;;;;;;;;;;5001781;28;20140;-63
2022/01/22 10:48:15;;;;;;;5.57;3.03;;;;;;;;;;5005610;28;20085;-63
2022/01/22 10:50:58;;;;;;;2.05;1.60;;;;;;;;;;5005993;28;20136;-62
2022/01/22 10:53:44;;;;;;;4.93;1.45;;;;;;;;;;5005474;28;20081;-62
2022/01/22 10:56:12;;;;;;;7.22;1.40;;;;;;;;;;5003249;28;20081;-62
2022/01/22 10:58:56;;;;;;;3.13;1.27;;;;;;;;;;5003442;28;20576;-63
2022/01/22 11:01:26;;;;;;;3.15;1.63;;;;;;;;;;5003493;28;20129;-62
2022/01/22 11:04:19;;;;;;;5.30;1.50;;;;;;;;;;5001349;28;20054;-62
2022/01/22 11:06:54;;;;;;;3.90;1.20;;;;;;;;;;5000919;28;20065;-62
2022/01/22 11:09:48;;;;;;;3.92;1.63;;;;;;;;;;5004969;28;20057;-62
2022/01/22 11:12:14;;;;;;;2.13;1.38;;;;;;;;;;4996724;28;20088;-62
2022/01/22 11:14:47;;;;;;;3.35;1.55;;;;;;;;;;5004541;28;20053;-62
2022/01/22 11:17:14;;;;;;;2.97;1.48;;;;;;;;;;5005587;28;20053;-62
2022/01/22 11:19:44;;;;;;;5.20;2.50;;;;;;;;;;5006235;28;20490;-62
2022/01/22 11:22:18;;;;;;;3.55;2.30;;;;;;;;;;5002566;28;20144;-62
2022/01/22 11:24:49;;;;;;;5.43;1.90;;;;;;;;;;5000722;28;20049;-62
2022/01/22 11:27:19;;;;;;;5.57;1.83;;;;;;;;;;5004104;28;20112;-62
2022/01/22 11:30:25;;;;;;;8.40;4.47;;;;;;;;;;5003793;28;20060;-62
2022/01/22 11:32:54;;;;;;;20.83;8.23;;;;;;;;;;4993348;28;20054;-63
2022/01/22 11:35:23;;;;;;;4.93;2.50;;;;;;;;;;5004997;28;20132;-63
2022/01/22 11:37:51;;;;;;;5.88;2.33;;;;;;;;;;5004635;28;20093;-63
2022/01/22 11:40:20;;;;;;;6.70;2.25;;;;;;;;;;5002256;28;20053;-62
2022/01/22 11:42:59;;;;;;;5.35;2.10;;;;;;;;;;5003381;28;20524;-62
2022/01/22 11:45:27;;;;;;;3.20;1.50;;;;;;;;;;5004214;28;20197;-62
2022/01/22 11:48:12;;;;;;;4.38;1.83;;;;;;;;;;5002781;28;20509;-62
2022/01/22 11:50:40;;;;;;;3.22;2.03;;;;;;;;;;5000229;28;20054;-63
2022/01/22 11:53:06;;;;;;;;;;;;;;;;;;5004518;28;20046;-62
2022/01/22 11:55:33;;;;;;;6.57;1.50;;;;;;;;;;5003415;28;19984;-62
2022/01/22 11:58:05;;;;;;;2.75;1.35;;;;;;;;;;5000736;28;20445;-62
2022/01/22 12:00:39;;;;;;;3.45;1.13;;;;;;;;;;5003985;28;20065;-62
2022/01/22 12:03:09;;;;;;;4.13;1.40;;;;;;;;;;5001392;28;20510;-62
2022/01/22 12:05:56;;;;;;;4.30;1.75;;;;;;;;;;5005373;28;20050;-62
2022/01/22 12:08:22;;;;;;;6.07;2.15;;;;;;;;;;5005457;28;20125;-62
2022/01/22 12:16:44;;;;;;;4.55;1.67;;;;;;;;;;5002063;28;20562;-62
2022/01/22 12:19:31;;;;;;;2.88;1.55;;;;;;;;;;5001332;28;20057;-62
2022/01/22 12:21:59;;;;;;;4.45;1.50;;;;;;;;;;5001132;28;20622;-62
2022/01/22 12:24:30;;;;;;;4.18;1.80;;;;;;;;;;5004735;28;20128;-62
2022/01/22 12:27:01;;;;;;;6.80;1.63;;;;;;;;;;5004757;28;20049;-62
2022/01/22 12:29:34;;;;;;;5.93;1.65;;;;;;;;;;5001943;28;20046;-62
2022/01/22 12:32:11;;;;;;;7.00;2.58;;;;;;;;;;4999417;28;20097;-62
2022/01/22 12:34:50;;;;;;;8.00;3.33;;;;;;;;;;5001382;28;20046;-62
2022/01/22 12:37:19;;;;;;;4.85;2.10;;;;;;;;;;5013470;28;20104;-62
2022/01/22 12:39:50;;;;;;;6.72;2.08;;;;;;;;;;5019921;28;20081;-62
2022/01/22 12:42:26;;;;;;;7.25;2.58;;;;;;;;;;5023790;28;20132;-62
2022/01/22 12:45:04;;;;;;;2.88;1.80;;;;;;;;;;5022591;28;20050;-62
2022/01/22 12:47:30;;;;;;;3.85;1.60;;;;;;;;;;5022718;28;20084;-62
2022/01/22 12:50:01;;;;;;;4.18;1.98;;;;;;;;;;5020381;28;20109;-62
2022/01/22 12:52:28;;;;;;;3.05;1.90;;;;;;;;;;5022573;28;20081;-62
2022/01/22 12:54:58;;;;;;;7.28;2.80;;;;;;;;;;5022970;28;20140;-62
2022/01/22 12:57:45;;;;;;;7.15;1.80;;;;;;;;;;5020652;28;20041;-62
2022/01/22 13:00:17;;;;;;;3.00;1.80;;;;;;;;;;5022020;28;20481;-62
2022/01/22 13:02:45;;;;;;;3.03;1.80;;;;;;;;;;5020976;28;20445;-62
2022/01/22 13:05:16;;;;;;;5.53;2.15;;;;;;;;;;5025717;28;20054;-62
2022/01/22 13:07:52;;;;;;;4.97;2.17;;;;;;;;;;5021775;28;20104;-62
2022/01/22 13:10:26;;;;;;;5.53;2.08;;;;;;;;;;5022494;28;20174;-62
2022/01/22 13:12:56;;;;;;;5.90;1.85;;;;;;;;;;5025893;28;20081;-62
2022/01/22 13:15:23;;;;;;;3.33;2.10;;;;;;;;;;5023263;28;20473;-62
2022/01/22 13:18:10;;;;;;;3.97;2.10;;;;;;;;;;5023198;28;20607;-62
2022/01/22 13:20:36;;;;;;;3.42;1.80;;;;;;;;;;5024674;28;20072;-62
2022/01/22 13:23:19;;;;;;;5.93;3.17;;;;;;;;;;5024014;28;20136;-63
2022/01/22 13:25:45;;;;;;;6.75;3.67;;;;;;;;;;5023187;28;20501;-62
2022/01/22 13:28:15;;;;;;;6.35;2.40;;;;;;;;;;5023287;28;20057;-62
2022/01/22 13:30:56;;;;;;;3.72;1.80;;;;;;;;;;5024401;28;20049;-62
2022/01/22 13:33:26;;;;;;;5.85;2.05;;;;;;;;;;5024048;28;20085;-62
2022/01/22 13:36:17;;;;;;;3.45;1.60;;;;;;;;;;5024286;28;20045;-63
2022/01/22 13:49:49;;;;;;;5.78;1.55;;;;;;;;;;5024047;28;20575;-62
2022/01/22 13:52:16;;;;;;;10.02;2.10;;;;;;;;;;5023077;28;20080;-62
2022/01/22 13:54:44;;;;;;;7.60;2.70;;;;;;;;;;5024496;28;20080;-62
2022/01/22 13:57:12;;;;;;;6.78;3.30;;;;;;;;;;5027356;28;20080;-62
2022/01/22 13:59:43;;;;;;;3.78;1.90;;;;;;;;;;5027694;28;20144;-62
2022/01/22 14:02:17;;;;;;;5.85;2.17;;;;;;;;;;5026424;28;20080;-62
2022/01/22 14:04:48;;;;;;;6.78;1.95;;;;;;;;;;5024372;28;20050;-62
2022/01/22 14:07:26;;;;;;;6.32;2.10;;;;;;;;;;5026279;28;20137;-62
2022/01/22 14:10:03;;;;;;;9.20;3.10;;;;;;;;;;5025285;28;20089;-62
2022/01/22 14:12:36;;;;;;;18.73;8.35;;;;;;;;;;5023419;28;20064;-62
2022/01/22 14:15:09;;;;;;;9.32;3.95;;;;;;;;;;5024296;28;20085;-62
2022/01/22 14:17:51;;;;;;;6.88;2.10;;;;;;;;;;5022969;28;20045;-62
2022/01/22 14:20:25;;;;;;;6.65;2.60;;;;;;;;;;5025387;28;20549;-62
2022/01/22 14:22:53;;;;;;;7.90;2.50;;;;;;;;;;5025156;28;20046;-62
2022/01/22 14:25:19;;;;;;;7.03;2.78;;;;;;;;;;5022201;28;20126;-62
2022/01/22 14:28:03;;;;;;;6.17;3.10;;;;;;;;;;5009230;28;20088;-62
2022/01/22 14:30:31;;;;;;;6.00;2.05;;;;;;;;;;5026189;28;20046;-62
2022/01/22 14:33:01;;;;;;;5.85;2.53;;;;;;;;;;5024154;28;20077;-62
2022/01/22 14:35:27;;;;;;;12.52;2.80;;;;;;;;;;5027103;28;20568;-62
2022/01/22 14:37:56;;;;;;;8.67;2.90;;;;;;;;;;5026596;28;20089;-62
2022/01/22 14:45:58;;;;;;;2.80;1.65;;;;;;;;;;5023728;28;20184;-62
2022/01/22 14:48:25;;;;;;;8.55;2.67;;;;;;;;;;5023431;28;20501;-62
2022/01/22 14:50:54;;;;;;;6.05;3.08;;;;;;;;;;5023002;28;20476;-62
2022/01/22 14:53:21;;;;;;;12.10;2.60;;;;;;;;;;5024064;28;20081;-62
2022/01/22 14:55:54;;;;;;;7.37;2.20;;;;;;;;;;5023569;28;20092;-62
2022/01/22 14:58:20;;;;;;;6.20;2.30;;;;;;;;;;5019453;28;20399;-62
2022/01/22 15:00:49;;;;;;;9.32;2.70;;;;;;;;;;5023843;28;20080;-62
2022/01/22 15:03:15;;;;;;;9.10;3.20;;;;;;;;;;5021332;28;20091;-62
2022/01/22 15:05:43;;;;;;;6.65;3.05;;;;;;;;;;5020499;28;20421;-62
2022/01/22 15:08:09;;;;;;;11.27;3.15;;;;;;;;;;5023525;28;20132;-62
2022/01/22 15:10:36;;;;;;;8.93;2.80;;;;;;;;;;5024561;28;20115;-62
2022/01/22 15:13:02;;;;;;;5.75;2.40;;;;;;;;;;5023564;28;20052;-62
2022/01/22 15:15:41;;;;;;;10.20;2.55;;;;;;;;;;5023494;28;20052;-63
2022/01/22 15:18:12;;;;;;;;;;;;;;;;;;5024687;28;20095;-62
2022/01/22 15:20:40;;;;;;;5.28;2.40;;;;;;;;;;5023620;28;19987;-62
2022/01/22 15:23:06;;;;;;;6.85;2.38;;;;;;;;;;5020904;28;20136;-63
2022/01/22 15:25:33;;;;;;;9.40;2.60;;;;;;;;;;5023613;28;20081;-62
2022/01/22 15:27:59;;;;;;;9.30;2.38;;;;;;;;;;5024085;28;20505;-62
2022/01/22 15:30:33;;;;;;;6.97;2.70;;;;;;;;;;5020973;28;20137;-62
2022/01/22 15:35:41;;;;;;;7.80;2.53;;;;;;;;;;5022252;28;20091;-62
2022/01/22 15:38:07;;;;;;;7.57;2.30;;;;;;;;;;5023387;28;20108;-62
2022/01/22 15:40:35;;;;;;;8.77;2.95;;;;;;;;;;5021429;28;20160;-62
2022/01/22 15:43:02;;;;;;;9.35;2.97;;;;;;;;;;5024211;28;20088;-62
2022/01/22 15:45:31;;;;;;;13.35;3.15;;;;;;;;;;5023524;28;20096;-62
2022/01/22 15:47:58;;;;;;;7.15;2.40;;;;;;;;;;5022559;28;20095;-62
2022/01/22 15:50:25;;;;;;;7.07;2.85;;;;;;;;;;5023328;28;20125;-62
2022/01/22 15:53:11;;;;;;;6.30;2.42;;;;;;;;;;5022348;28;20500;-62
2022/01/22 15:55:37;;;;;;;7.57;2.70;;;;;;;;;;5022619;28;20124;-62
2022/01/22 15:58:06;;;;;;;11.70;2.38;;;;;;;;;;5019193;28;20049;-62
2022/01/22 16:00:35;;;;;;;12.77;2.88;;;;;;;;;;5021741;28;20045;-62
2022/01/22 16:03:03;;;;;;;11.50;3.47;;;;;;;;;;5021918;28;20049;-62
2022/01/22 16:05:30;;;;;;;10.90;3.92;;;;;;;;;;5023078;28;20052;-62
2022/01/22 16:07:57;;;;;;;10.55;3.60;;;;;;;;;;5022131;28;20181;-62
2022/01/22 16:10:43;;;;;;;10.35;3.10;;;;;;;;;;5021533;28;20046;-62
2022/01/22 16:13:10;;;;;;;11.15;3.25;;;;;;;;;;5020671;28;20561;-62
2022/01/22 16:15:37;;;;;;;13.43;4.00;;;;;;;;;;5022158;28;20095;-62
2022/01/22 16:18:04;;;;;;;13.57;3.10;;;;;;;;;;5018313;28;20461;-62
2022/01/22 16:20:30;;;;;;;10.55;3.15;;;;;;;;;;5025527;28;20076;-62
2022/01/22 16:22:57;;;;;;;9.47;3.00;;;;;;;;;;5021972;28;20619;-62
2022/01/22 16:25:23;;;;;;;12.45;3.28;;;;;;;;;;5022727;28;20566;-62
2022/01/22 16:27:53;;;;;;;8.77;2.90;;;;;;;;;;5023951;28;20129;-62
2022/01/22 16:30:19;;;;;;;14.77;3.30;;;;;;;;;;5020846;28;20117;-62
2022/01/22 16:32:46;;;;;;;9.02;2.70;;;;;;;;;;5021077;28;20168;-62
2022/01/22 16:35:15;;;;;;;11.50;3.38;;;;;;;;;;5024795;28;20081;-62
2022/01/22 16:37:42;;;;;;;16.92;3.42;;;;;;;;;;5019991;28;20138;-62
2022/01/22 16:40:16;;;;;;;11.20;2.90;;;;;;;;;;5020773;28;20077;-62
2022/01/22 16:42:48;;;;;;;11.98;4.60;;;;;;;;;;5023704;28;20054;-62
2022/01/22 16:45:49;;;;;;;27.95;14.38;;;;;;;;;;5021439;28;20468;-61
2022/01/22 16:57:04;;;;;;;23.63;7.18;;;;;;;;;;4979913;28;20121;-62
2022/01/22 16:59:50;;;;;;;16.95;6.18;;;;;;;;;;5016442;28;20057;-62
2022/01/22 17:02:24;;;;;;;14.27;3.33;;;;;;;;;;5018919;28;20045;-62
2022/01/22 17:04:54;;;;;;;22.20;4.72;;;;;;;;;;5022544;28;20128;-61